^^
Meteo Knjazevac Station Historical Data
Daily Summary for January 8, 2021 Units:  English    Metric   Both
Daily Weekly Monthly Yearly Custom
  High: Low: Average:
Temperature: 64.2 °F 51.1 °F 55.7 °F
Dew Point: 52.8 °F 41.2 °F 45.2 °F
Humidity: 83% 43% 69%
Wind Speed: 14mph 2mph 7.2mph
Wind Gust: 27mph - -
Wind- - WSW
Pressure: 30.19 in 29.96 in -
Precipitation: 0.00 in    
Historical Graphs
 
 
Tabular Data for January 8, 2021
Time Temperature Dew Point Pressure Wind Wind Speed Wind Gust Humidity Rainfall Rate (Hourly) solar Conditions
00:00 61.5 °F 52.8 °F 29.96 in West 12 mph 23 mph 73% 0.00 in 0 W/m2
00:10 60.3 °F 52.3 °F 29.97 in WSW 13 mph 27 mph 75% 0.00 in 0 W/m2
00:20 59.2 °F 52 °F 29.98 in WSW 14 mph 24 mph 77% 0.00 in 0 W/m2
00:30 58.5 °F 51.6 °F 29.99 in WSW 10 mph 23 mph 78% 0.00 in 0 W/m2
00:40 57.9 °F 51.1 °F 29.99 in WSW 9 mph 22 mph 78% 0.00 in 0 W/m2
00:50 57.4 °F 50.6 °F 30.00 in WSW 9 mph 16 mph 78% 0.00 in 0 W/m2
01:00 57.2 °F 50.4 °F 30.00 in WSW 10 mph 17 mph 78% 0.00 in 0 W/m2
01:10 56.8 °F 49.7 °F 30.01 in WSW 12 mph 20 mph 77% 0.00 in 0 W/m2
01:20 56.5 °F 49.4 °F 30.02 in WSW 10 mph 21 mph 77% 0.00 in 0 W/m2
01:30 55.9 °F 48.1 °F 30.02 in WSW 10 mph 22 mph 75% 0.00 in 0 W/m2
01:40 55.4 °F 48.3 °F 30.03 in WSW 9 mph 20 mph 77% 0.00 in 0 W/m2
01:50 55 °F 48 °F 30.04 in WSW 8 mph 15 mph 77% 0.00 in 0 W/m2
02:00 54.7 °F 47.6 °F 30.05 in WSW 8 mph 18 mph 77% 0.00 in 0 W/m2
02:10 54.4 °F 47.3 °F 30.06 in WSW 8 mph 15 mph 77% 0.00 in 0 W/m2
02:20 54.1 °F 47.1 °F 30.06 in WSW 9 mph 14 mph 77% 0.00 in 0 W/m2
02:30 54 °F 46.9 °F 30.06 in West 3 mph 12 mph 77% 0.00 in 0 W/m2
02:40 53.8 °F 47.1 °F 30.07 in WSW 6 mph 15 mph 78% 0.00 in 0 W/m2
02:50 53.6 °F 47.2 °F 30.07 in WSW 5 mph 17 mph 79% 0.00 in 0 W/m2
03:00 53.4 °F 47.1 °F 30.08 in WSW 6 mph 13 mph 79% 0.00 in 0 W/m2
03:10 53.2 °F 46.9 °F 30.08 in West 7 mph 12 mph 79% 0.00 in 0 W/m2
03:20 53.1 °F 47.1 °F 30.08 in West 6 mph 14 mph 80% 0.00 in 0 W/m2
03:30 52.7 °F 47 °F 30.09 in West 6 mph 14 mph 81% 0.00 in 0 W/m2
03:40 52.4 °F 46.7 °F 30.09 in WSW 6 mph 15 mph 81% 0.00 in 0 W/m2
03:50 52.2 °F 46.5 °F 30.09 in WSW 6 mph 12 mph 81% 0.00 in 0 W/m2
04:00 52 °F 46.3 °F 30.10 in West 5 mph 12 mph 81% 0.00 in 0 W/m2
04:10 51.8 °F 46.2 °F 30.10 in West 2 mph 6 mph 81% 0.00 in 0 W/m2
04:20 51.8 °F 46.2 °F 30.10 in WSW 5 mph 9 mph 81% 0.00 in 0 W/m2
04:30 51.8 °F 46.2 °F 30.11 in WSW 3 mph 7 mph 81% 0.00 in 0 W/m2
04:40 51.6 °F 46 °F 30.11 in WSW 3 mph 8 mph 81% 0.00 in 0 W/m2
04:50 51.6 °F 46 °F 30.11 in WSW 3 mph 9 mph 81% 0.00 in 0 W/m2
05:00 51.4 °F 45.8 °F 30.11 in West 6 mph 12 mph 81% 0.00 in 0 W/m2
05:10 51.3 °F 46.3 °F 30.11 in WSW 7 mph 12 mph 83% 0.00 in 0 W/m2
05:20 51.3 °F 46.3 °F 30.11 in WSW 6 mph 12 mph 83% 0.00 in 2 W/m2
05:30 51.1 °F 45.5 °F 30.12 in WSW 5 mph 13 mph 81% 0.00 in 6 W/m2
05:40 51.1 °F 46.1 °F 30.12 in West 3 mph 11 mph 83% 0.00 in 13 W/m2
05:50 51.1 °F 46.1 °F 30.12 in WSW 3 mph 8 mph 83% 0.00 in 20 W/m2
06:00 51.1 °F 46.1 °F 30.13 in SW 3 mph 11 mph 83% 0.00 in 21 W/m2
06:10 51.1 °F 45.5 °F 30.13 in WSW 5 mph 8 mph 81% 0.00 in 23 W/m2
06:20 51.1 °F 45.5 °F 30.13 in WSW 5 mph 8 mph 81% 0.00 in 28 W/m2
06:30 51.1 °F 45.5 °F 30.13 in West 7 mph 12 mph 81% 0.00 in 38 W/m2
06:40 51.2 °F 45.6 °F 30.14 in WSW 3 mph 7 mph 81% 0.00 in 39 W/m2
06:50 51.3 °F 45.6 °F 30.14 in WSW 6 mph 8 mph 81% 0.00 in 57 W/m2
07:00 51.3 °F 45.6 °F 30.15 in WSW 5 mph 11 mph 81% 0.00 in 61 W/m2
07:10 51.3 °F 45.6 °F 30.15 in WSW 6 mph 12 mph 81% 0.00 in 44 W/m2
07:20 51.4 °F 45.8 °F 30.15 in WSW 7 mph 13 mph 81% 0.00 in 107 W/m2
07:30 51.6 °F 45.6 °F 30.16 in WSW 7 mph 14 mph 80% 0.00 in 120 W/m2
07:40 51.8 °F 45.5 °F 30.16 in West 6 mph 13 mph 79% 0.00 in 148 W/m2
07:50 51.8 °F 45.2 °F 30.17 in West 5 mph 11 mph 78% 0.00 in 150 W/m2
08:00 52 °F 45 °F 30.17 in West 5 mph 11 mph 77% 0.00 in 253 W/m2
08:10 52.2 °F 44.1 °F 30.18 in WSW 8 mph 12 mph 74% 0.00 in 200 W/m2
08:20 52.3 °F 43.9 °F 30.18 in WSW 7 mph 11 mph 73% 0.00 in 265 W/m2
08:30 52.7 °F 43.9 °F 30.18 in WSW 8 mph 13 mph 72% 0.00 in 245 W/m2
08:40 52.9 °F 44.1 °F 30.18 in WSW 5 mph 10 mph 72% 0.00 in 262 W/m2
08:50 52.9 °F 43 °F 30.18 in WSW 7 mph 12 mph 69% 0.00 in 195 W/m2
09:00 52.9 °F 43 °F 30.19 in WSW 6 mph 12 mph 69% 0.00 in 333 W/m2
09:10 54.1 °F 43.4 °F 30.19 in WSW 7 mph 12 mph 67% 0.00 in 650 W/m2
09:20 55.4 °F 43.4 °F 30.19 in WSW 8 mph 13 mph 64% 0.00 in 676 W/m2
09:30 55.1 °F 42.7 °F 30.19 in WSW 6 mph 12 mph 63% 0.00 in 287 W/m2
09:40 54.7 °F 42.3 °F 30.19 in WSW 5 mph 10 mph 63% 0.00 in 309 W/m2
09:50 55.2 °F 42.4 °F 30.19 in WSW 8 mph 12 mph 62% 0.00 in 410 W/m2
10:00 55.4 °F 41.7 °F 30.19 in WSW 6 mph 12 mph 60% 0.00 in 409 W/m2
10:10 56.3 °F 42.6 °F 30.19 in SW 2 mph 8 mph 60% 0.00 in 540 W/m2
10:20 56.5 °F 41.9 °F 30.18 in WSW 5 mph 8 mph 58% 0.00 in 465 W/m2
10:30 57.2 °F 42.5 °F 30.18 in WSW 8 mph 13 mph 58% 0.00 in 803 W/m2
10:40 57.6 °F 42.9 °F 30.19 in West 6 mph 13 mph 58% 0.00 in 521 W/m2
10:50 58.3 °F 43.1 °F 30.19 in WSW 9 mph 13 mph 57% 0.00 in 411 W/m2
11:00 57.9 °F 42.8 °F 30.19 in WSW 12 mph 16 mph 57% 0.00 in 358 W/m2
11:10 57.7 °F 42.6 °F 30.18 in WSW 7 mph 20 mph 57% 0.00 in 397 W/m2
11:20 57.7 °F 42.6 °F 30.19 in WSW 10 mph 15 mph 57% 0.00 in 357 W/m2
11:30 58.1 °F 42 °F 30.19 in WSW 8 mph 16 mph 55% 0.00 in 818 W/m2
11:40 58.5 °F 41.9 °F 30.19 in WSW 8 mph 14 mph 54% 0.00 in 838 W/m2
11:50 58.8 °F 42.2 °F 30.19 in WSW 7 mph 13 mph 54% 0.00 in 816 W/m2
12:00 59.4 °F 42.2 °F 30.18 in WSW 7 mph 15 mph 53% 0.00 in 926 W/m2
12:10 59.9 °F 42.7 °F 30.19 in WSW 6 mph 15 mph 53% 0.00 in 929 W/m2
12:20 60.6 °F 42.9 °F 30.18 in WSW 8 mph 15 mph 52% 0.00 in 930 W/m2
12:30 61.2 °F 43.4 °F 30.18 in WSW 12 mph 17 mph 52% 0.00 in 930 W/m2
12:40 61.2 °F 43.4 °F 30.18 in WSW 8 mph 17 mph 52% 0.00 in 929 W/m2
12:50 61.2 °F 42.4 °F 30.18 in WSW 9 mph 15 mph 50% 0.00 in 774 W/m2
13:00 61.7 °F 42.9 °F 30.17 in WSW 9 mph 18 mph 50% 0.00 in 921 W/m2
13:10 61.5 °F 42.7 °F 30.17 in WSW 8 mph 18 mph 50% 0.00 in 915 W/m2
13:20 61.9 °F 43 °F 30.17 in WSW 7 mph 15 mph 50% 0.00 in 907 W/m2
13:30 62.2 °F 42.8 °F 30.17 in WSW 7 mph 17 mph 49% 0.00 in 897 W/m2
13:40 62.4 °F 42.5 °F 30.17 in SW 10 mph 17 mph 48% 0.00 in 887 W/m2
13:50 62.8 °F 43.3 °F 30.17 in WSW 6 mph 19 mph 49% 0.00 in 874 W/m2
14:00 63.3 °F 43.3 °F 30.17 in WSW 6 mph 15 mph 48% 0.00 in 861 W/m2
14:10 63 °F 41.3 °F 30.17 in WSW 13 mph 20 mph 45% 0.00 in 845 W/m2
14:20 63.3 °F 41.6 °F 30.16 in WSW 13 mph 17 mph 45% 0.00 in 829 W/m2
14:30 63.7 °F 41.9 °F 30.17 in West 9 mph 15 mph 45% 0.00 in 811 W/m2
14:40 64 °F 41.7 °F 30.16 in WSW 9 mph 15 mph 44% 0.00 in 791 W/m2
14:50 64.2 °F 41.2 °F 30.16 in WSW 12 mph 18 mph 43% 0.00 in 771 W/m2
Knjazevac, Serbia
Compliments of Weather Underground - 2 mb